createdAt,value
2023-04-06T00:00:01.646Z,5.35
2023-04-06T00:02:50.215Z,4.72
2023-04-06T00:05:38.789Z,4.13
2023-04-06T00:08:28.053Z,4.47
2023-04-06T00:11:18.519Z,5.03
2023-04-06T00:14:06.956Z,4.53
2023-04-06T00:16:55.487Z,4.63
2023-04-06T00:19:44.007Z,4.75
2023-04-06T00:22:32.622Z,2.97
2023-04-06T00:25:21.167Z,4.95
2023-04-06T00:28:11.073Z,4.10
2023-04-06T00:30:59.713Z,4.18
2023-04-06T00:33:50.138Z,4.63
2023-04-06T00:36:38.676Z,4.32
2023-04-06T00:39:27.176Z,3.30
2023-04-06T00:42:16.212Z,4.75
2023-04-06T00:45:06.807Z,3.83
2023-04-06T00:47:55.439Z,3.83
2023-04-06T00:50:44.858Z,3.65
2023-04-06T00:53:33.355Z,4.32
2023-04-06T00:56:22.261Z,3.55
2023-04-06T00:59:10.923Z,5.10
2023-04-06T01:02:01.135Z,3.72
2023-04-06T01:04:49.763Z,3.65
2023-04-06T01:07:38.287Z,2.40
2023-04-06T01:10:27.134Z,3.47
2023-04-06T01:13:15.653Z,3.55
2023-04-06T01:16:04.919Z,2.90
2023-04-06T01:18:54.771Z,3.42
2023-04-06T01:21:43.855Z,2.70
2023-04-06T01:24:33.775Z,3.83
2023-04-06T01:27:22.215Z,3.03
2023-04-06T01:30:11.110Z,3.80
2023-04-06T01:32:59.759Z,3.70
2023-04-06T01:35:48.284Z,2.97
2023-04-06T01:38:37.224Z,5.40
2023-04-06T01:41:27.226Z,3.30
2023-04-06T01:44:16.845Z,2.65
2023-04-06T01:47:05.601Z,2.80
2023-04-06T01:49:54.078Z,3.92
2023-04-06T01:52:42.918Z,3.78
2023-04-06T01:55:31.528Z,3.33
2023-04-06T01:58:21.434Z,2.97
2023-04-06T02:01:10.647Z,2.80
2023-04-06T02:03:59.152Z,2.50
2023-04-06T02:06:47.652Z,2.67
2023-04-06T02:09:36.296Z,3.95
2023-04-06T02:12:25.056Z,2.70
2023-04-06T02:15:15.532Z,2.70
2023-04-06T02:18:04.063Z,2.95
2023-04-06T02:20:52.653Z,3.78
2023-04-06T02:23:41.146Z,3.22
2023-04-06T02:26:29.732Z,3.88
2023-04-06T02:29:18.307Z,3.88
2023-04-06T02:32:08.510Z,4.93
2023-04-06T02:34:57.052Z,4.90
2023-04-06T02:37:45.557Z,3.83
2023-04-06T02:40:34.039Z,5.47
2023-04-06T02:43:22.613Z,6.45
2023-04-06T02:46:11.253Z,3.58
2023-04-06T02:49:01.998Z,4.60
2023-04-06T02:51:50.608Z,4.60
2023-04-06T02:54:39.142Z,4.47
2023-04-06T02:57:27.657Z,3.67
2023-04-06T03:00:16.603Z,3.72
2023-04-06T03:03:05.333Z,4.10
2023-04-06T03:05:57.293Z,3.08
2023-04-06T03:08:46.245Z,3.85
2023-04-06T03:11:34.767Z,3.95
2023-04-06T03:14:23.618Z,4.82
2023-04-06T03:17:12.140Z,4.75
2023-04-06T03:20:00.596Z,3.70
2023-04-06T03:22:50.521Z,4.85
2023-04-06T03:25:40.548Z,4.82
2023-04-06T03:28:29.040Z,4.30
2023-04-06T03:31:17.579Z,3.80
2023-04-06T03:34:06.385Z,3.95
2023-04-06T03:37:06.794Z,4.53
2023-04-06T03:39:59.495Z,4.10
2023-04-06T03:42:47.982Z,3.83
2023-04-06T03:45:36.551Z,4.20
2023-04-06T03:48:25.050Z,2.85
2023-04-06T03:51:13.775Z,3.42
2023-04-06T03:54:02.286Z,4.57
2023-04-06T03:56:52.213Z,3.50
2023-04-06T03:59:40.784Z,3.15
2023-04-06T04:02:29.477Z,3.70
2023-04-06T04:05:18.423Z,6.00
2023-04-06T04:08:07.011Z,3.53
2023-04-06T04:10:55.643Z,2.90
2023-04-06T04:13:46.009Z,3.50
2023-04-06T04:16:34.610Z,4.22
2023-04-06T04:19:23.112Z,3.42
2023-04-06T04:22:11.590Z,3.20
2023-04-06T04:25:00.185Z,2.80
2023-04-06T04:27:48.825Z,3.53
2023-04-06T04:30:38.732Z,3.30
2023-04-06T04:33:27.203Z,2.47
2023-04-06T04:36:15.737Z,5.03
2023-04-06T04:39:04.358Z,4.18
2023-04-06T04:41:52.919Z,5.03
2023-04-06T04:44:41.505Z,3.58
2023-04-06T04:47:31.454Z,3.38
2023-04-06T04:50:19.948Z,2.72
2023-04-06T04:53:08.475Z,2.80
2023-04-06T04:55:57.193Z,2.13
2023-04-06T04:58:45.713Z,4.97
2023-04-06T05:01:43.768Z,3.20
2023-04-06T05:04:41.450Z,3.42
2023-04-06T05:07:29.952Z,4.63
2023-04-06T05:10:18.519Z,4.82
2023-04-06T05:13:07.050Z,4.40
2023-04-06T05:15:55.782Z,3.38
2023-04-06T05:18:44.416Z,4.10
2023-04-06T05:21:34.274Z,4.18
2023-04-06T05:24:23.004Z,2.97
2023-04-06T05:27:11.793Z,3.45
2023-04-06T05:30:00.502Z,2.75
2023-04-06T05:32:49.390Z,2.20
2023-04-06T05:35:37.972Z,2.30
2023-04-06T05:38:27.958Z,3.92
2023-04-06T05:41:16.684Z,2.72
2023-04-06T05:44:05.226Z,2.75
2023-04-06T05:46:53.759Z,3.30
2023-04-06T05:49:44.145Z,4.33
2023-04-06T05:52:32.656Z,4.50
2023-04-06T05:55:22.627Z,3.67
2023-04-06T05:58:11.716Z,2.85
2023-04-06T06:01:00.406Z,5.70
2023-04-06T06:03:48.911Z,5.85
2023-04-06T06:06:37.852Z,5.87
2023-04-06T06:09:27.089Z,4.60
2023-04-06T06:12:17.038Z,11.23
2023-04-06T06:15:06.377Z,3.43
2023-04-06T06:17:54.887Z,3.92
2023-04-06T06:20:43.464Z,5.28
2023-04-06T06:23:32.027Z,7.80
2023-04-06T06:26:20.642Z,5.40
2023-04-06T06:29:10.592Z,7.55
2023-04-06T06:31:59.272Z,7.03
2023-04-06T06:34:47.919Z,5.22
2023-04-06T06:37:36.387Z,7.05
2023-04-06T06:40:27.162Z,6.22
2023-04-06T06:43:15.860Z,7.20
2023-04-06T06:46:06.646Z,5.07
2023-04-06T06:48:55.119Z,6.72
2023-04-06T06:51:43.539Z,3.83
2023-04-06T06:54:32.102Z,6.57
2023-04-06T06:57:20.565Z,3.95
2023-04-06T07:00:12.828Z,4.60
2023-04-06T07:03:03.128Z,4.90
2023-04-06T07:05:54.308Z,5.60
2023-04-06T07:08:42.993Z,5.28
2023-04-06T07:11:31.876Z,6.05
2023-04-06T07:14:20.560Z,6.67
2023-04-06T07:17:09.180Z,4.78
2023-04-06T07:19:59.252Z,4.97
2023-04-06T07:22:47.772Z,4.28
2023-04-06T07:25:36.284Z,5.10
2023-04-06T07:28:24.819Z,4.43
2023-04-06T07:31:13.411Z,7.18
2023-04-06T07:34:02.001Z,5.23
2023-04-06T07:36:53.857Z,4.13
2023-04-06T07:39:44.513Z,5.13
2023-04-06T07:42:34.064Z,5.60
2023-04-06T07:45:22.761Z,5.07
2023-04-06T07:48:11.344Z,6.32
2023-04-06T07:51:04.199Z,6.25
2023-04-06T07:53:54.475Z,7.57
2023-04-06T07:56:42.942Z,6.25
2023-04-06T07:59:31.511Z,6.13
2023-04-06T08:02:20.210Z,6.53
2023-04-06T08:05:09.278Z,7.22
2023-04-06T08:07:58.215Z,4.88
2023-04-06T08:10:48.077Z,4.60
2023-04-06T08:13:36.650Z,7.10
2023-04-06T08:16:25.412Z,5.15
2023-04-06T08:19:14.018Z,4.78
2023-04-06T08:22:03.434Z,5.50
2023-04-06T08:24:52.570Z,4.60
2023-04-06T08:27:42.458Z,4.23
2023-04-06T08:30:31.910Z,3.45
2023-04-06T08:33:20.450Z,4.13
2023-04-06T08:36:10.892Z,3.03
2023-04-06T08:38:59.783Z,4.30
2023-04-06T08:41:48.282Z,4.45
2023-04-06T08:44:38.812Z,2.70
2023-04-06T08:47:27.501Z,2.90
2023-04-06T08:50:16.335Z,3.03
2023-04-06T08:53:04.847Z,2.38
2023-04-06T08:55:53.539Z,3.73
2023-04-06T08:58:43.112Z,4.45
2023-04-06T09:01:35.920Z,3.47
2023-04-06T09:04:24.656Z,4.28
2023-04-06T09:07:13.241Z,2.40
2023-04-06T09:10:01.844Z,4.05
2023-04-06T09:12:50.516Z,2.58
2023-04-06T09:15:39.971Z,2.30
2023-04-06T09:18:33.548Z,3.57
2023-04-06T09:21:24.610Z,4.18
2023-04-06T09:24:14.523Z,2.97
2023-04-06T09:27:02.972Z,2.33
2023-04-06T09:29:51.494Z,2.60
2023-04-06T09:32:51.347Z,3.33
2023-04-06T09:35:41.321Z,3.33
2023-04-06T09:38:29.856Z,2.78
2023-04-06T09:41:24.064Z,4.43
2023-04-06T09:44:14.263Z,4.18
2023-04-06T09:47:04.934Z,3.63
2023-04-06T09:49:58.390Z,2.85
2023-04-06T09:52:51.463Z,3.00
2023-04-06T09:55:45.140Z,2.10
2023-04-06T09:58:39.282Z,3.33
2023-04-06T10:01:32.126Z,3.70
2023-04-06T10:04:35.564Z,4.55
2023-04-06T10:07:24.686Z,3.23
2023-04-06T10:10:16.587Z,2.80
2023-04-06T10:13:05.973Z,6.13
2023-04-06T10:15:54.903Z,4.90
2023-04-06T10:18:48.277Z,3.45
2023-04-06T10:21:38.181Z,3.38
2023-04-06T10:24:27.136Z,3.83
2023-04-06T10:27:17.046Z,3.25
2023-04-06T10:30:08.239Z,3.92
2023-04-06T10:32:57.110Z,3.97
2023-04-06T10:35:46.050Z,4.20
2023-04-06T10:38:41.404Z,5.38
2023-04-06T10:41:35.468Z,4.83
2023-04-06T10:44:26.369Z,4.00
2023-04-06T10:47:21.189Z,3.47
2023-04-06T10:50:10.979Z,3.78
2023-04-06T10:53:03.554Z,4.35
2023-04-06T10:55:52.909Z,4.50
2023-04-06T10:58:47.630Z,3.47
2023-04-06T11:01:37.742Z,4.55
2023-04-06T11:04:27.529Z,3.33
2023-04-06T11:07:25.559Z,3.97
2023-04-06T11:10:18.338Z,2.83
2023-04-06T11:13:08.971Z,3.88
2023-04-06T11:15:57.475Z,4.53
2023-04-06T11:18:58.119Z,3.50
2023-04-06T11:21:49.141Z,4.03
2023-04-06T11:24:37.580Z,4.85
2023-04-06T11:27:26.525Z,6.35
2023-04-06T11:30:15.843Z,3.83
2023-04-06T11:33:04.447Z,5.82
2023-04-06T11:35:54.477Z,3.55
2023-04-06T11:38:43.080Z,4.07
2023-04-06T11:41:32.983Z,3.38
2023-04-06T11:44:31.804Z,4.15
2023-04-06T11:47:20.637Z,5.40
2023-04-06T11:50:10.397Z,4.80
2023-04-06T11:53:04.414Z,5.20
2023-04-06T11:55:53.228Z,6.53
2023-04-06T11:58:42.024Z,5.40
2023-04-06T12:01:34.207Z,4.40
2023-04-06T12:04:25.841Z,4.38
2023-04-06T12:07:14.695Z,4.38
2023-04-06T12:10:06.068Z,5.63
2023-04-06T12:12:54.951Z,4.32
2023-04-06T12:15:43.840Z,6.37
2023-04-06T12:18:33.200Z,6.53
2023-04-06T12:21:21.710Z,6.50
2023-04-06T12:24:10.454Z,5.53
2023-04-06T12:27:09.512Z,7.03
2023-04-06T12:29:59.181Z,4.63
2023-04-06T12:32:50.336Z,6.13
2023-04-06T12:35:39.897Z,4.90
2023-04-06T12:38:28.753Z,6.65
2023-04-06T12:41:17.632Z,6.43
2023-04-06T12:44:07.894Z,5.88
2023-04-06T12:46:57.319Z,6.45
2023-04-06T12:49:46.217Z,4.55
2023-04-06T12:52:36.352Z,5.80
2023-04-06T12:55:24.937Z,3.80
2023-04-06T12:58:13.697Z,7.57
2023-04-06T13:01:08.518Z,6.45
2023-04-06T13:03:57.295Z,3.67
2023-04-06T13:06:46.292Z,4.28
2023-04-06T13:09:34.892Z,6.88
2023-04-06T13:12:23.386Z,5.00
2023-04-06T13:15:12.747Z,4.63
2023-04-06T13:18:02.654Z,6.25
2023-04-06T13:20:51.512Z,5.35
2023-04-06T13:23:40.388Z,6.72
2023-04-06T13:26:29.636Z,3.90
2023-04-06T13:29:18.450Z,3.75
2023-04-06T13:32:07.395Z,7.25
2023-04-06T13:34:59.373Z,4.85
2023-04-06T13:37:49.126Z,6.63
2023-04-06T13:40:40.516Z,5.93
2023-04-06T13:43:29.196Z,5.55
2023-04-06T13:46:17.871Z,8.50
2023-04-06T13:49:07.133Z,5.60
2023-04-06T13:51:57.369Z,4.47
2023-04-06T13:54:46.116Z,5.03
2023-04-06T13:57:34.849Z,4.65
2023-04-06T14:00:24.706Z,5.05
2023-04-06T14:03:13.601Z,5.97
2023-04-06T14:06:09.391Z,5.43
2023-04-06T14:09:06.378Z,4.25
2023-04-06T14:11:55.124Z,6.95
2023-04-06T14:14:43.600Z,7.68
2023-04-06T14:17:32.212Z,4.22
2023-04-06T14:20:21.204Z,5.70
2023-04-06T14:23:09.613Z,4.70
2023-04-06T14:26:06.313Z,5.05
2023-04-06T14:28:54.713Z,5.25
2023-04-06T14:31:43.463Z,6.13
2023-04-06T14:34:31.884Z,4.55
2023-04-06T14:37:22.111Z,4.57
2023-04-06T14:40:11.272Z,5.10
2023-04-06T14:43:01.145Z,6.20
2023-04-06T14:45:49.698Z,5.28
2023-04-06T14:48:38.659Z,6.65
2023-04-06T14:51:28.167Z,5.55
2023-04-06T14:54:16.907Z,4.40
2023-04-06T14:57:05.493Z,6.23
2023-04-06T14:59:56.657Z,4.95
2023-04-06T15:02:45.246Z,4.93
2023-04-06T15:05:36.122Z,4.93
2023-04-06T15:08:25.442Z,5.53
2023-04-06T15:11:14.501Z,4.38
2023-04-06T15:14:03.164Z,4.75
2023-04-06T15:16:53.051Z,5.43
2023-04-06T15:19:41.752Z,6.88
2023-04-06T15:22:30.616Z,5.00
2023-04-06T15:25:19.202Z,5.50
2023-04-06T15:28:07.651Z,5.75
2023-04-06T15:30:56.808Z,5.03
2023-04-06T15:33:47.194Z,5.90
2023-04-06T15:36:36.359Z,5.20
2023-04-06T15:39:25.515Z,4.30
2023-04-06T15:42:14.030Z,3.78
2023-04-06T15:45:02.729Z,4.07
2023-04-06T15:47:51.171Z,3.78
2023-04-06T15:50:41.045Z,3.33
2023-04-06T15:53:29.580Z,4.05
2023-04-06T15:56:18.080Z,5.93
2023-04-06T15:59:06.633Z,2.97
2023-04-06T16:01:55.136Z,3.60
2023-04-06T16:04:43.702Z,3.05
2023-04-06T16:07:34.348Z,3.75
2023-04-06T16:10:22.825Z,4.70
2023-04-06T16:13:11.344Z,3.50
2023-04-06T16:15:59.791Z,4.35
2023-04-06T16:18:48.255Z,3.05
2023-04-06T16:21:36.725Z,2.43
2023-04-06T16:24:26.571Z,12.68
2023-04-06T16:27:15.030Z,8.60
2023-04-06T16:32:57.107Z,4.30
2023-04-06T16:35:46.014Z,4.20
2023-04-06T16:38:35.709Z,4.10
2023-04-06T16:41:26.665Z,3.58
2023-04-06T16:44:15.150Z,4.22
2023-04-06T16:47:04.260Z,3.72
2023-04-06T16:49:53.827Z,3.95
2023-04-06T16:52:42.499Z,3.53
2023-04-06T16:55:31.044Z,3.67
2023-04-06T16:58:20.916Z,3.05
2023-04-06T17:01:09.511Z,15.77
2023-04-06T17:03:58.519Z,7.90
2023-04-06T17:06:47.127Z,6.30
2023-04-06T17:09:35.676Z,5.82
2023-04-06T17:12:24.122Z,4.87
2023-04-06T17:15:14.267Z,5.28
2023-04-06T17:18:02.778Z,4.53
2023-04-06T17:20:51.535Z,4.90
2023-04-06T17:23:39.998Z,9.35
2023-04-06T17:26:28.548Z,20.33
2023-04-06T17:29:16.997Z,13.63
2023-04-06T17:32:07.708Z,8.20
2023-04-06T17:34:56.128Z,6.30
2023-04-06T17:37:45.762Z,9.25
2023-04-06T17:40:35.584Z,8.98
2023-04-06T17:43:24.044Z,5.97
2023-04-06T17:46:13.060Z,7.38
2023-04-06T17:49:02.908Z,9.13
2023-04-06T17:51:51.389Z,6.80
2023-04-06T17:54:39.833Z,6.38
2023-04-06T17:57:28.269Z,6.40
2023-04-06T18:00:20.097Z,6.18
2023-04-06T18:03:08.645Z,7.03
2023-04-06T18:05:58.487Z,6.43
2023-04-06T18:08:46.982Z,6.47
2023-04-06T18:11:35.434Z,7.72
2023-04-06T18:14:23.826Z,6.80
2023-04-06T18:17:12.260Z,6.38
2023-04-06T18:20:01.431Z,7.38
2023-04-06T18:25:44.820Z,7.25
2023-04-06T18:28:33.465Z,7.45
2023-04-06T18:31:22.172Z,8.13
2023-04-06T18:34:10.917Z,8.15
2023-04-06T18:36:59.996Z,9.88
2023-04-06T18:39:49.924Z,8.10
2023-04-06T18:42:38.874Z,8.38
2023-04-06T18:45:27.389Z,8.13
2023-04-06T18:48:15.858Z,8.45
2023-04-06T18:51:04.539Z,7.97
2023-04-06T18:53:53.070Z,9.50
2023-04-06T18:56:42.957Z,8.90
2023-04-06T18:59:31.806Z,8.10
2023-04-06T19:02:20.408Z,9.38
2023-04-06T19:05:09.963Z,9.90
2023-04-06T19:07:58.486Z,7.03
2023-04-06T19:10:49.268Z,12.60
2023-04-06T19:13:39.252Z,11.88
2023-04-06T19:16:29.246Z,16.92
2023-04-06T19:19:18.003Z,16.50
2023-04-06T19:22:06.513Z,15.68
2023-04-06T19:24:55.070Z,12.77
2023-04-06T19:27:43.624Z,14.50
2023-04-06T19:30:33.780Z,13.50
2023-04-06T19:33:22.395Z,14.17
2023-04-06T19:36:11.063Z,13.52
2023-04-06T19:38:59.952Z,13.00
2023-04-06T19:41:48.495Z,12.27
2023-04-06T19:44:37.190Z,12.33
2023-04-06T19:47:27.388Z,13.15
2023-04-06T19:50:15.952Z,13.13
2023-04-06T19:53:04.479Z,13.23
2023-04-06T19:55:53.151Z,13.77
2023-04-06T19:58:41.750Z,15.40
2023-04-06T20:01:30.304Z,14.32
2023-04-06T20:04:20.386Z,15.73
2023-04-06T20:07:09.400Z,16.48
2023-04-06T20:09:58.023Z,17.10
2023-04-06T20:12:46.586Z,13.13
2023-04-06T20:15:35.076Z,17.00
2023-04-06T20:18:23.552Z,15.40
2023-04-06T20:21:13.334Z,14.68
2023-04-06T20:24:01.769Z,13.50
2023-04-06T20:26:50.796Z,14.70
2023-04-06T20:29:39.341Z,11.27
2023-04-06T20:32:27.856Z,12.75
2023-04-06T20:35:16.550Z,12.13
2023-04-06T20:38:06.676Z,13.18
2023-04-06T20:40:56.916Z,12.02
2023-04-06T20:43:45.319Z,13.75
2023-04-06T20:46:33.772Z,14.10
2023-04-06T20:49:24.022Z,16.33
2023-04-06T20:52:13.199Z,14.00
2023-04-06T20:55:03.011Z,14.43
2023-04-06T20:57:51.479Z,14.98
2023-04-06T21:00:40.111Z,16.52
2023-04-06T21:03:28.885Z,15.75
2023-04-06T21:06:17.518Z,13.15
2023-04-06T21:09:06.134Z,13.23
2023-04-06T21:11:56.025Z,14.25
2023-04-06T21:14:44.449Z,14.57
2023-04-06T21:17:32.962Z,17.45
2023-04-06T21:20:21.402Z,12.73
2023-04-06T21:23:09.882Z,16.75
2023-04-06T21:25:58.503Z,11.70
2023-04-06T21:28:48.352Z,14.32
2023-04-06T21:31:41.154Z,15.07
2023-04-06T21:34:29.643Z,12.57
2023-04-06T21:37:19.631Z,12.85
2023-04-06T21:40:09.750Z,16.63
2023-04-06T21:42:58.201Z,14.43
2023-04-06T21:45:51.683Z,14.75
2023-04-06T21:48:40.191Z,13.10
2023-04-06T21:51:28.666Z,15.13
2023-04-06T21:54:17.581Z,12.20
2023-04-06T21:57:06.460Z,13.43
2023-04-06T21:59:55.526Z,13.73
2023-04-06T22:02:46.105Z,11.93
2023-04-06T22:05:35.117Z,13.05
2023-04-06T22:08:33.667Z,11.80
2023-04-06T22:11:22.719Z,13.70
2023-04-06T22:14:11.477Z,12.57
2023-04-06T22:16:59.990Z,11.30
2023-04-06T22:19:49.840Z,9.48
2023-04-06T22:22:38.314Z,12.48
2023-04-06T22:25:26.770Z,9.93
2023-04-06T22:28:15.217Z,12.45
2023-04-06T22:31:03.634Z,12.20
2023-04-06T22:33:52.096Z,12.17
2023-04-06T22:36:41.960Z,12.52
2023-04-06T22:39:30.633Z,11.63
2023-04-06T22:42:19.141Z,10.95
2023-04-06T22:45:08.882Z,11.30
2023-04-06T22:47:57.372Z,12.05
2023-04-06T22:50:45.847Z,14.40
2023-04-06T22:53:35.735Z,12.07
2023-04-06T22:56:24.188Z,12.90
2023-04-06T22:59:12.595Z,12.48
2023-04-06T23:02:01.344Z,11.80
2023-04-06T23:04:49.918Z,9.32
2023-04-06T23:07:38.378Z,10.32
2023-04-06T23:10:28.227Z,9.18
2023-04-06T23:13:16.710Z,10.43
2023-04-06T23:16:05.650Z,9.93
2023-04-06T23:18:54.259Z,10.18
2023-04-06T23:21:42.680Z,9.88
2023-04-06T23:24:31.133Z,9.90
2023-04-06T23:27:21.058Z,10.98
2023-04-06T23:30:10.479Z,10.13
2023-04-06T23:32:59.011Z,9.07
2023-04-06T23:35:47.480Z,8.38
2023-04-06T23:38:36.226Z,8.75
2023-04-06T23:41:24.730Z,11.00
2023-04-06T23:44:14.565Z,12.93
2023-04-06T23:47:03.046Z,10.65
2023-04-06T23:49:51.492Z,9.00
2023-04-06T23:52:39.932Z,8.93
2023-04-06T23:55:28.323Z,10.48
2023-04-06T23:58:16.720Z,9.40
